Airfield :
LOGIN :

Register | Disclaimer

   EN    FR    IT 

 










Legend :    VFR   Marginal VFR   IFR   Intensive IFR   Very Intensive IFR
Visi :
Ceiling :
>= 8 km
>= 3000ft
5 to 8 km
1000 to 3000 ft
1500m to 5 km
500 to 1000 ft
800 to 1500m
200 to 500 ft
< 800m
< 200 ft
Symbols :   Thunderstorms  Fog  Heavy snow  Heavy precipitations  Wind > 20 kt
SIGMETs :     Misc.  Thunderstorms  Icing  Turbulence  Mountain Waves  Volcanic Ashes






- Airport Elevation : 1363 ft


ETIC - Grafenwohr Army Air Field

CURRENT METAR :
  • 140556Z AUTO 11006KT 9999 OVC010 02/02 A2968 RMK AO2 SLP070 T00220021 10027 20021 53005 $

EXPIRED METARs :
  • 140541Z AUTO 11007KT 9999 OVC010 02/02 A2968 RMK AO2 SLP070 $
  • 140526Z AUTO 11007KT 9999 OVC009 02/02 A2968 RMK AO2 SLP070 $
  • 140511Z AUTO 11005KT 9999 OVC008 02/02 A2968 RMK AO2 SLP070 $
  • 140456Z AUTO 12007KT 9999 OVC007 02/02 A2967 RMK AO2 SLP067 T00230023 $
  • 140441Z AUTO 13006KT 9999 OVC007 02/02 A2967 RMK AO2 SLP067 $
  • 140426Z AUTO 14006KT 9999 OVC006 02/02 A2967 RMK AO2 SLP067 $
  • 140356Z AUTO 11006KT 9999 OVC007 02/02 A2966 RMK AO2 SLP062 T00240024 $
  • 140345Z AUTO 12005KT 9999 OVC007 02/02 A2966 RMK AO2 SLP062 $

TAF TAF ETIC
Valid from the 14 at 06:00 until the 15 at 12:00 UTC


140600Z 1406/1512 11009KT 9999 BKN015 QNH2964INS
TEMPO 1406/1410 BKN010
BECMG 1415/1416 08010G15KT 9999 SCT010 BKN020 QNH2947INS
BECMG 1502/1503 08009KT 9999 SCT020 BKN040 QNH2941INS
BECMG 1510/1511 VRB06KT 9999 SCT030 QNH2947INS TX06/1412Z TN00/1506Z



MET'MAP, your aeronautical weather chart ! - Copyright ORBIFLY December 2007 - Disclaimer

ORBIFLY MET'MAP TEAM :

Programming & Development : Alexandra Zaïnal
Concept & Development : Baudouin d'Aumeries
Co-Development & Prog : Marc-Olivier Méhu
Technical & hardware support : Manuel Goepfert

Contact : metmap@orbifly.com




SOURCES & CREDITS :

   NOAA